createdAt,value
2023-11-01T00:01:16.884Z,97379.00
2023-11-01T00:03:44.799Z,97391.00
2023-11-01T00:06:12.852Z,97383.00
2023-11-01T00:08:40.662Z,97386.00
2023-11-01T00:11:10.087Z,97387.00
2023-11-01T00:13:37.965Z,97397.00
2023-11-01T00:16:06.429Z,97393.00
2023-11-01T00:18:34.227Z,97398.00
2023-11-01T00:21:02.014Z,97399.00
2023-11-01T00:23:30.096Z,97405.00
2023-11-01T00:25:59.340Z,97407.00
2023-11-01T00:28:29.269Z,97403.00
2023-11-01T00:30:57.070Z,97405.00
2023-11-01T00:33:24.892Z,97404.00
2023-11-01T00:35:52.775Z,97408.00
2023-11-01T00:38:22.460Z,97407.00
2023-11-01T00:40:52.864Z,97414.00
2023-11-01T00:43:20.625Z,97408.00
2023-11-01T00:45:49.875Z,97407.00
2023-11-01T00:48:17.709Z,97408.00
2023-11-01T00:50:46.382Z,97409.00
2023-11-01T00:53:14.308Z,97409.00
2023-11-01T00:55:42.157Z,97405.00
2023-11-01T00:58:10.173Z,97417.00
2023-11-01T01:00:36.987Z,97405.00
2023-11-01T01:03:08.254Z,97402.00
2023-11-01T01:05:36.459Z,97406.00
2023-11-01T01:08:04.562Z,97400.00
2023-11-01T01:10:32.706Z,97405.00
2023-11-01T01:13:00.756Z,97396.00
2023-11-01T01:15:28.762Z,97388.00
2023-11-01T01:17:56.928Z,97380.00
2023-11-01T01:20:26.263Z,97389.00
2023-11-01T01:22:54.105Z,97383.00
2023-11-01T01:25:21.889Z,97384.00
2023-11-01T01:27:49.648Z,97384.00
2023-11-01T01:30:17.527Z,97383.00
2023-11-01T01:32:45.383Z,97385.00
2023-11-01T01:35:14.361Z,97383.00
2023-11-01T01:37:43.669Z,97384.00
2023-11-01T01:40:12.941Z,97388.00
2023-11-01T01:42:40.899Z,97382.00
2023-11-01T01:45:10.455Z,97395.00
2023-11-01T01:47:38.640Z,97391.00
2023-11-01T01:50:08.908Z,97389.00
2023-11-01T01:52:36.990Z,97387.00
2023-11-01T01:55:07.928Z,97376.00
2023-11-01T01:57:36.805Z,97376.00
2023-11-01T02:00:06.968Z,97382.00
2023-11-01T02:02:34.991Z,97377.00
2023-11-01T02:05:07.532Z,97371.00
2023-11-01T02:07:35.532Z,97376.00
2023-11-01T02:10:04.354Z,97383.00
2023-11-01T02:12:33.568Z,97372.00
2023-11-01T02:15:01.891Z,97367.00
2023-11-01T02:17:29.893Z,97367.00
2023-11-01T02:19:57.699Z,97364.00
2023-11-01T02:22:25.527Z,97361.00
2023-11-01T02:24:55.984Z,97368.00
2023-11-01T02:27:24.021Z,97360.00
2023-11-01T02:29:51.826Z,97348.00
2023-11-01T02:32:22.310Z,97349.00
2023-11-01T02:34:50.208Z,97357.00
2023-11-01T02:37:18.024Z,97351.00
2023-11-01T02:39:45.829Z,97353.00
2023-11-01T02:42:14.941Z,97354.00
2023-11-01T02:44:42.966Z,97358.00
2023-11-01T02:47:10.867Z,97354.00
2023-11-01T02:49:38.681Z,97357.00
2023-11-01T02:52:06.411Z,97353.00
2023-11-01T02:54:34.557Z,97353.00
2023-11-01T02:57:02.494Z,97341.00
2023-11-01T02:59:31.679Z,97352.00
2023-11-01T03:02:00.433Z,97346.00
2023-11-01T03:04:28.230Z,97347.00
2023-11-01T03:06:55.968Z,97351.00
2023-11-01T03:09:23.779Z,97351.00
2023-11-01T03:11:51.508Z,97341.00
2023-11-01T03:14:19.297Z,97335.00
2023-11-01T03:16:48.530Z,97321.00
2023-11-01T03:19:16.420Z,97329.00
2023-11-01T03:21:44.348Z,97331.00
2023-11-01T03:24:12.282Z,97332.00
2023-11-01T03:26:41.369Z,97321.00
2023-11-01T03:29:09.362Z,97324.00
2023-11-01T03:31:37.665Z,97315.00
2023-11-01T03:34:06.997Z,97324.00
2023-11-01T03:36:34.889Z,97329.00
2023-11-01T03:39:02.834Z,97328.00
2023-11-01T03:41:30.813Z,97321.00
2023-11-01T03:44:00.208Z,97329.00
2023-11-01T03:46:27.974Z,97322.00
2023-11-01T03:48:55.820Z,97327.00
2023-11-01T03:51:24.934Z,97317.00
2023-11-01T03:53:52.917Z,97311.00
2023-11-01T03:56:21.886Z,97314.00
2023-11-01T03:58:49.997Z,97325.00
2023-11-01T04:01:18.831Z,97327.00
2023-11-01T04:03:47.668Z,97330.00
2023-11-01T04:06:15.839Z,97323.00
2023-11-01T04:08:44.964Z,97323.00
2023-11-01T04:11:12.800Z,97318.00
2023-11-01T04:13:40.639Z,97316.00
2023-11-01T04:16:08.799Z,97314.00
2023-11-01T04:18:36.887Z,97303.00
2023-11-01T04:21:05.332Z,97309.00
2023-11-01T04:23:33.244Z,97307.00
2023-11-01T04:26:02.394Z,97311.00
2023-11-01T04:28:30.170Z,97306.00
2023-11-01T04:30:58.017Z,97300.00
2023-11-01T04:33:25.712Z,97305.00
2023-11-01T04:35:55.040Z,97306.00
2023-11-01T04:38:23.067Z,97301.00
2023-11-01T04:40:51.563Z,97292.00
2023-11-01T04:43:20.631Z,97292.00
2023-11-01T04:45:49.010Z,97284.00
2023-11-01T04:48:16.866Z,97282.00
2023-11-01T04:50:49.538Z,97284.00
2023-11-01T04:53:18.020Z,97287.00
2023-11-01T04:55:48.320Z,97293.00
2023-11-01T04:58:16.401Z,97296.00
2023-11-01T05:00:45.826Z,97289.00
2023-11-01T05:03:14.963Z,97288.00
2023-11-01T05:05:42.858Z,97288.00
2023-11-01T05:08:12.155Z,97270.00
2023-11-01T05:10:39.997Z,97270.00
2023-11-01T05:13:08.467Z,97261.00
2023-11-01T05:15:38.101Z,97267.00
2023-11-01T05:18:07.497Z,97255.00
2023-11-01T05:20:35.261Z,97257.00
2023-11-01T05:23:03.010Z,97244.00
2023-11-01T05:25:30.929Z,97242.00
2023-11-01T05:27:58.883Z,97249.00
2023-11-01T05:30:26.834Z,97244.00
2023-11-01T05:32:55.780Z,97242.00
2023-11-01T05:35:24.898Z,97237.00
2023-11-01T05:37:53.289Z,97240.00
2023-11-01T05:40:21.131Z,97242.00
2023-11-01T05:42:50.069Z,97237.00
2023-11-01T05:45:18.604Z,97245.00
2023-11-01T05:47:52.462Z,97240.00
2023-11-01T05:50:25.135Z,97236.00
2023-11-01T05:52:58.077Z,97246.00
2023-11-01T05:55:33.901Z,97254.00
2023-11-01T05:58:12.773Z,97249.00
2023-11-01T06:00:41.193Z,97247.00
2023-11-01T06:03:09.345Z,97248.00
2023-11-01T06:05:37.580Z,97255.00
2023-11-01T06:08:10.097Z,97252.00
2023-11-01T06:10:38.101Z,97247.00
2023-11-01T06:13:06.824Z,97248.00
2023-11-01T06:15:34.596Z,97252.00
2023-11-01T06:18:02.512Z,97254.00
2023-11-01T06:20:30.438Z,97255.00
2023-11-01T06:22:58.169Z,97255.00
2023-11-01T06:25:27.467Z,97252.00
2023-11-01T06:27:56.299Z,97257.00
2023-11-01T06:30:24.128Z,97246.00
2023-11-01T06:32:51.915Z,97241.00
2023-11-01T06:35:19.858Z,97243.00
2023-11-01T06:37:48.666Z,97241.00
2023-11-01T06:40:17.173Z,97240.00
2023-11-01T06:42:46.347Z,97238.00
2023-11-01T06:45:14.201Z,97243.00
2023-11-01T06:47:42.312Z,97245.00
2023-11-01T06:50:11.394Z,97248.00
2023-11-01T06:52:40.865Z,97246.00
2023-11-01T06:55:09.223Z,97241.00
2023-11-01T06:57:36.992Z,97236.00
2023-11-01T07:00:07.421Z,97231.00
2023-11-01T07:02:36.029Z,97235.00
2023-11-01T07:05:05.947Z,97230.00
2023-11-01T07:07:33.880Z,97241.00
2023-11-01T07:10:02.535Z,97232.00
2023-11-01T07:12:30.418Z,97228.00
2023-11-01T07:14:58.285Z,97223.00
2023-11-01T07:17:29.160Z,97213.00
2023-11-01T07:19:57.459Z,97219.00
2023-11-01T07:22:25.236Z,97216.00
2023-11-01T07:24:53.033Z,97214.00
2023-11-01T07:27:21.131Z,97213.00
2023-11-01T07:29:49.248Z,97206.00
2023-11-01T07:32:18.208Z,97215.00
2023-11-01T07:34:47.385Z,97212.00
2023-11-01T07:37:15.169Z,97217.00
2023-11-01T07:39:42.897Z,97217.00
2023-11-01T07:42:11.071Z,97219.00
2023-11-01T07:44:39.354Z,97215.00
2023-11-01T07:47:07.599Z,97213.00
2023-11-01T07:49:35.336Z,97207.00
2023-11-01T07:52:05.625Z,97220.00
2023-11-01T07:54:33.995Z,97215.00
2023-11-01T07:57:01.830Z,97217.00
2023-11-01T07:59:29.806Z,97223.00
2023-11-01T08:01:59.869Z,97216.00
2023-11-01T08:04:31.673Z,97214.00
2023-11-01T08:06:59.641Z,97216.00
2023-11-01T08:09:28.811Z,97213.00
2023-11-01T08:11:56.605Z,97199.00
2023-11-01T08:14:24.522Z,97200.00
2023-11-01T08:16:52.430Z,97197.00
2023-11-01T08:19:20.229Z,97201.00
2023-11-01T08:21:47.968Z,97194.00
2023-11-01T08:27:41.932Z,97200.00
2023-11-01T08:30:10.503Z,97203.00
2023-11-01T08:32:39.955Z,97208.00
2023-11-01T08:35:19.654Z,97216.00
2023-11-01T08:37:47.376Z,97211.00
2023-11-01T08:40:17.049Z,97211.00
2023-11-01T08:42:44.880Z,97212.00
2023-11-01T08:45:13.011Z,97203.00
2023-11-01T08:47:43.037Z,97213.00
2023-11-01T08:50:13.838Z,97209.00
2023-11-01T08:52:44.099Z,97201.00
2023-11-01T08:55:14.415Z,97208.00
2023-11-01T08:57:46.587Z,97205.00
2023-11-01T09:00:15.595Z,97198.00
2023-11-01T09:02:43.789Z,97199.00
2023-11-01T09:05:11.805Z,97201.00
2023-11-01T09:07:39.936Z,97196.00
2023-11-01T09:10:10.280Z,97193.00
2023-11-01T09:12:38.754Z,97195.00
2023-11-01T09:15:09.579Z,97196.00
2023-11-01T09:17:37.480Z,97198.00
2023-11-01T09:20:06.175Z,97192.00
2023-11-01T09:22:34.025Z,97184.00
2023-11-01T09:25:02.023Z,97184.00
2023-11-01T09:27:30.258Z,97188.00
2023-11-01T09:29:58.082Z,97180.00
2023-11-01T09:32:27.426Z,97192.00
2023-11-01T09:34:55.226Z,97187.00
2023-11-01T09:37:23.364Z,97190.00
2023-11-01T09:39:51.487Z,97192.00
2023-11-01T09:42:22.329Z,97192.00
2023-11-01T09:44:51.220Z,97185.00
2023-11-01T09:47:19.779Z,97183.00
2023-11-01T09:49:49.542Z,97182.00
2023-11-01T09:52:18.461Z,97170.00
2023-11-01T09:54:46.349Z,97174.00
2023-11-01T09:57:14.776Z,97168.00
2023-11-01T09:59:42.656Z,97166.00
2023-11-01T10:02:12.075Z,97161.00
2023-11-01T10:04:40.559Z,97158.00
2023-11-01T10:07:10.530Z,97164.00
2023-11-01T10:09:39.620Z,97159.00
2023-11-01T10:12:09.547Z,97153.00
2023-11-01T10:14:38.787Z,97160.00
2023-11-01T10:17:06.929Z,97159.00
2023-11-01T10:19:35.127Z,97162.00
2023-11-01T10:22:03.423Z,97163.00
2023-11-01T10:24:32.808Z,97169.00
2023-11-01T10:27:00.716Z,97163.00
2023-11-01T10:29:29.723Z,97163.00
2023-11-01T10:32:00.439Z,97148.00
2023-11-01T10:34:30.181Z,97138.00
2023-11-01T10:36:59.224Z,97140.00
2023-11-01T10:39:28.089Z,97139.00
2023-11-01T10:41:57.983Z,97136.00
2023-11-01T10:44:27.461Z,97131.00
2023-11-01T10:46:56.218Z,97133.00
2023-11-01T10:49:25.480Z,97121.00
2023-11-01T10:51:54.665Z,97119.00
2023-11-01T10:54:23.248Z,97116.00
2023-11-01T10:56:51.441Z,97105.00
2023-11-01T10:59:30.823Z,97105.00
2023-11-01T11:02:04.670Z,97107.00
2023-11-01T11:04:39.183Z,97104.00
2023-11-01T11:07:24.261Z,97103.00
2023-11-01T11:10:22.344Z,97098.00
2023-11-01T11:13:26.835Z,97087.00
2023-11-01T11:16:08.034Z,97085.00
2023-11-01T11:18:57.105Z,97084.00
2023-11-01T11:22:04.392Z,97071.00
2023-11-01T11:24:53.908Z,97068.00
2023-11-01T11:27:52.558Z,97071.00
2023-11-01T11:31:08.822Z,97061.00
2023-11-01T11:33:40.157Z,97060.00
2023-11-01T11:36:16.096Z,97059.00
2023-11-01T11:38:52.179Z,97059.00
2023-11-01T11:41:21.764Z,97060.00
2023-11-01T11:44:09.711Z,97047.00
2023-11-01T11:46:41.299Z,97051.00
2023-11-01T11:49:11.354Z,97049.00
2023-11-01T11:51:40.329Z,97048.00
2023-11-01T11:54:13.055Z,97047.00
2023-11-01T11:56:40.959Z,97040.00
2023-11-01T11:59:10.308Z,97041.00
2023-11-01T12:01:38.130Z,97030.00
2023-11-01T12:04:08.399Z,97031.00
2023-11-01T12:06:46.285Z,97020.00
2023-11-01T12:09:17.699Z,97018.00
2023-11-01T12:11:50.684Z,97008.00
2023-11-01T12:14:22.686Z,97002.00
2023-11-01T12:16:51.428Z,96999.00
2023-11-01T12:19:20.521Z,97000.00
2023-11-01T12:21:51.505Z,97008.00
2023-11-01T12:24:21.206Z,97003.00
2023-11-01T12:27:02.475Z,97010.00
2023-11-01T12:29:38.291Z,97003.00
2023-11-01T12:32:07.763Z,96999.00
2023-11-01T12:34:36.575Z,96986.00
2023-11-01T12:37:11.567Z,96987.00
2023-11-01T12:39:41.014Z,96982.00
2023-11-01T12:42:22.248Z,96982.00
2023-11-01T12:44:51.016Z,96989.00
2023-11-01T12:47:19.002Z,96978.00
2023-11-01T12:49:45.982Z,96974.00
2023-11-01T12:52:15.487Z,96971.00
2023-11-01T12:54:44.200Z,96967.00
2023-11-01T12:57:12.551Z,96968.00
2023-11-01T12:59:40.601Z,96967.00
2023-11-01T13:02:08.683Z,96957.00
2023-11-01T13:04:38.005Z,96955.00
2023-11-01T13:07:06.109Z,96951.00
2023-11-01T13:09:35.534Z,96957.00
2023-11-01T13:12:04.884Z,96955.00
2023-11-01T13:14:34.242Z,96949.00
2023-11-01T13:17:02.142Z,96943.00
2023-11-01T13:19:30.064Z,96945.00
2023-11-01T13:21:57.971Z,96939.00
2023-11-01T13:24:25.753Z,96933.00
2023-11-01T13:26:54.917Z,96938.00
2023-11-01T13:29:23.010Z,96945.00
2023-11-01T13:31:54.962Z,96940.00
2023-11-01T13:34:23.967Z,96943.00
2023-11-01T13:36:53.205Z,96940.00
2023-11-01T13:39:22.442Z,96931.00
2023-11-01T13:41:52.128Z,96929.00
2023-11-01T13:44:22.068Z,96928.00
2023-11-01T13:46:50.258Z,96923.00
2023-11-01T13:49:18.196Z,96921.00
2023-11-01T13:51:46.174Z,96920.00
2023-11-01T13:54:13.914Z,96916.00
2023-11-01T13:56:41.893Z,96914.00
2023-11-01T13:59:09.811Z,96913.00
2023-11-01T14:01:38.968Z,96920.00
2023-11-01T14:04:07.446Z,96915.00
2023-11-01T14:06:35.638Z,96916.00
2023-11-01T14:09:05.497Z,96908.00
2023-11-01T14:11:33.496Z,96900.00
2023-11-01T14:14:01.666Z,96903.00
2023-11-01T14:16:29.508Z,96901.00
2023-11-01T14:18:59.545Z,96898.00
2023-11-01T14:21:27.809Z,96894.00
2023-11-01T14:23:55.804Z,96891.00
2023-11-01T14:26:23.852Z,96890.00
2023-11-01T14:28:51.756Z,96883.00
2023-11-01T14:31:20.160Z,96879.00
2023-11-01T14:33:48.072Z,96879.00
2023-11-01T14:36:17.889Z,96871.00
2023-11-01T14:38:45.719Z,96871.00
2023-11-01T14:41:13.577Z,96879.00
2023-11-01T14:43:41.385Z,96871.00
2023-11-01T14:46:09.453Z,96871.00
2023-11-01T14:48:37.465Z,96861.00
2023-11-01T14:51:06.838Z,96854.00
2023-11-01T14:53:36.222Z,96865.00
2023-11-01T14:56:09.878Z,96873.00
2023-11-01T14:58:37.681Z,96862.00
2023-11-01T15:01:09.444Z,96866.00
2023-11-01T15:03:37.419Z,96863.00
2023-11-01T15:06:05.992Z,96866.00
2023-11-01T15:08:34.534Z,96864.00
2023-11-01T15:11:04.482Z,96871.00
2023-11-01T15:13:32.387Z,96852.00
2023-11-01T15:16:01.433Z,96851.00
2023-11-01T15:18:29.517Z,96848.00
2023-11-01T15:20:58.079Z,96851.00
2023-11-01T15:23:26.102Z,96839.00
2023-11-01T15:25:54.176Z,96842.00
2023-11-01T15:28:23.634Z,96837.00
2023-11-01T15:30:51.371Z,96834.00
2023-11-01T15:33:19.913Z,96833.00
2023-11-01T15:35:47.842Z,96824.00
2023-11-01T15:38:17.450Z,96817.00
2023-11-01T15:40:45.285Z,96804.00
2023-11-01T15:43:13.632Z,96805.00
2023-11-01T15:45:43.733Z,96802.00
2023-11-01T15:48:11.680Z,96804.00
2023-11-01T15:50:43.014Z,96802.00
2023-11-01T15:53:11.445Z,96793.00
2023-11-01T15:55:39.395Z,96793.00
2023-11-01T15:58:07.308Z,96791.00
2023-11-01T16:00:35.098Z,96790.00
2023-11-01T16:03:04.421Z,96788.00
2023-11-01T16:05:32.949Z,96796.00
2023-11-01T16:08:01.190Z,96793.00
2023-11-01T16:10:28.924Z,96796.00
2023-11-01T16:12:56.705Z,96802.00
2023-11-01T16:15:25.129Z,96805.00
2023-11-01T16:17:55.395Z,96813.00
2023-11-01T16:20:24.586Z,96804.00
2023-11-01T16:22:52.387Z,96812.00
2023-11-01T16:25:20.347Z,96809.00
2023-11-01T16:27:49.059Z,96817.00
2023-11-01T16:30:18.028Z,96824.00
2023-11-01T16:32:52.100Z,96819.00
2023-11-01T16:35:22.370Z,96816.00
2023-11-01T16:37:51.629Z,96808.00
2023-11-01T16:40:20.080Z,96814.00
2023-11-01T16:42:47.878Z,96821.00
2023-11-01T16:45:15.747Z,96815.00
2023-11-01T16:47:44.530Z,96809.00
2023-11-01T16:50:12.589Z,96812.00
2023-11-01T16:52:40.653Z,96807.00
2023-11-01T16:55:11.447Z,96811.00
2023-11-01T16:57:39.388Z,96808.00
2023-11-01T17:00:07.583Z,96813.00
2023-11-01T17:02:45.303Z,96810.00
2023-11-01T17:05:18.196Z,96814.00
2023-11-01T17:07:46.126Z,96809.00
2023-11-01T17:10:15.315Z,96817.00
2023-11-01T17:12:43.104Z,96819.00
2023-11-01T17:15:11.765Z,96822.00
2023-11-01T17:17:43.168Z,96814.00
2023-11-01T17:20:12.599Z,96822.00
2023-11-01T17:22:57.760Z,96818.00
2023-11-01T17:26:01.447Z,96805.00
2023-11-01T17:28:35.830Z,96806.00
2023-11-01T17:31:11.296Z,96807.00
2023-11-01T17:33:41.670Z,96812.00
2023-11-01T17:36:22.102Z,96813.00
2023-11-01T17:38:53.185Z,96818.00
2023-11-01T17:42:00.051Z,96811.00
2023-11-01T17:44:32.580Z,96809.00
2023-11-01T17:47:03.282Z,96816.00
2023-11-01T17:49:42.340Z,96813.00
2023-11-01T17:52:10.318Z,96816.00
2023-11-01T17:54:39.407Z,96815.00
2023-11-01T17:57:07.780Z,96818.00
2023-11-01T17:59:39.445Z,96820.00
2023-11-01T18:02:38.656Z,96821.00
2023-11-01T18:05:48.593Z,96814.00
2023-11-01T18:08:21.334Z,96820.00
2023-11-01T18:10:51.091Z,96823.00
2023-11-01T18:13:24.738Z,96816.00
2023-11-01T18:15:56.296Z,96815.00
2023-11-01T18:18:43.048Z,96801.00
2023-11-01T18:21:15.881Z,96812.00
2023-11-01T18:23:51.713Z,96806.00
2023-11-01T18:26:20.820Z,96803.00
2023-11-01T18:28:50.554Z,96800.00
2023-11-01T18:31:22.568Z,96798.00
2023-11-01T18:33:57.506Z,96804.00
2023-11-01T18:36:26.372Z,96808.00
2023-11-01T18:38:57.157Z,96800.00
2023-11-01T18:41:27.883Z,96798.00
2023-11-01T18:43:55.761Z,96795.00
2023-11-01T18:46:31.741Z,96788.00
2023-11-01T18:48:59.752Z,96790.00
2023-11-01T18:51:54.547Z,96788.00
2023-11-01T18:54:22.473Z,96784.00
2023-11-01T18:56:50.226Z,96780.00
2023-11-01T18:59:31.241Z,96780.00
2023-11-01T19:02:01.143Z,96778.00
2023-11-01T19:04:29.234Z,96771.00
2023-11-01T19:06:57.697Z,96770.00
2023-11-01T19:09:25.700Z,96776.00
2023-11-01T19:11:53.964Z,96771.00
2023-11-01T19:14:21.745Z,96768.00
2023-11-01T19:16:49.860Z,96766.00
2023-11-01T19:19:18.095Z,96769.00
2023-11-01T19:21:46.103Z,96768.00
2023-11-01T19:24:13.903Z,96770.00
2023-11-01T19:26:41.828Z,96772.00
2023-11-01T19:29:09.661Z,96775.00
2023-11-01T19:31:37.447Z,96774.00
2023-11-01T19:34:06.356Z,96784.00
2023-11-01T19:36:35.985Z,96775.00
2023-11-01T19:39:04.205Z,96784.00
2023-11-01T19:41:31.992Z,96779.00
2023-11-01T19:44:02.931Z,96779.00
2023-11-01T19:46:33.614Z,96775.00
2023-11-01T19:49:01.432Z,96773.00
2023-11-01T19:51:29.798Z,96781.00
2023-11-01T19:53:59.279Z,96771.00
2023-11-01T19:56:27.550Z,96766.00
2023-11-01T19:58:55.358Z,96761.00
2023-11-01T20:01:24.407Z,96755.00
2023-11-01T20:03:52.318Z,96744.00
2023-11-01T20:06:22.018Z,96739.00
2023-11-01T20:08:49.915Z,96735.00
2023-11-01T20:11:19.415Z,96740.00
2023-11-01T20:13:47.307Z,96731.00
2023-11-01T20:16:21.586Z,96739.00
2023-11-01T20:18:54.096Z,96740.00
2023-11-01T20:21:22.497Z,96736.00
2023-11-01T20:23:51.240Z,96742.00
2023-11-01T20:26:20.771Z,96735.00
2023-11-01T20:28:48.566Z,96743.00
2023-11-01T20:31:16.375Z,96739.00
2023-11-01T20:33:44.356Z,96731.00
2023-11-01T20:36:12.302Z,96728.00
2023-11-01T20:38:40.154Z,96723.00
2023-11-01T20:41:08.258Z,96732.00
2023-11-01T20:43:37.603Z,96735.00
2023-11-01T20:46:06.522Z,96741.00
2023-11-01T20:48:35.442Z,96733.00
2023-11-01T20:51:06.366Z,96741.00
2023-11-01T20:53:34.171Z,96734.00
2023-11-01T20:56:01.967Z,96728.00
2023-11-01T20:58:31.649Z,96731.00
2023-11-01T21:01:01.772Z,96723.00
2023-11-01T21:03:30.162Z,96713.00
2023-11-01T21:05:58.940Z,96705.00
2023-11-01T21:08:27.017Z,96695.00
2023-11-01T21:10:55.151Z,96700.00
2023-11-01T21:13:23.168Z,96701.00
2023-11-01T21:15:51.080Z,96704.00
2023-11-01T21:18:20.388Z,96711.00
2023-11-01T21:20:48.559Z,96702.00
2023-11-01T21:23:16.517Z,96698.00
2023-11-01T21:25:44.577Z,96695.00
2023-11-01T21:28:12.523Z,96689.00
2023-11-01T21:30:40.405Z,96684.00
2023-11-01T21:33:09.718Z,96692.00
2023-11-01T21:35:39.055Z,96685.00
2023-11-01T21:38:08.049Z,96689.00
2023-11-01T21:40:36.130Z,96689.00
2023-11-01T21:43:04.301Z,96689.00
2023-11-01T21:45:50.086Z,96681.00
2023-11-01T21:48:23.552Z,96685.00
2023-11-01T21:50:59.527Z,96693.00
2023-11-01T21:53:30.646Z,96685.00
2023-11-01T21:56:00.573Z,96684.00
2023-11-01T21:58:29.577Z,96688.00
2023-11-01T22:00:59.937Z,96675.00
2023-11-01T22:03:42.728Z,96683.00
2023-11-01T22:06:16.784Z,96675.00
2023-11-01T22:09:02.537Z,96682.00
2023-11-01T22:11:32.169Z,96690.00
2023-11-01T22:14:32.090Z,96699.00
2023-11-01T22:17:01.944Z,96685.00
2023-11-01T22:19:35.962Z,96671.00
2023-11-01T22:22:10.648Z,96671.00
2023-11-01T22:24:41.501Z,96674.00
2023-11-01T22:27:11.350Z,96668.00
2023-11-01T22:29:45.593Z,96670.00
2023-11-01T22:32:23.439Z,96675.00
2023-11-01T22:34:53.425Z,96665.00
2023-11-01T22:37:24.529Z,96653.00
2023-11-01T22:39:53.374Z,96652.00
2023-11-01T22:42:23.432Z,96649.00
2023-11-01T22:44:51.850Z,96656.00
2023-11-01T22:47:20.082Z,96656.00
2023-11-01T22:49:47.950Z,96656.00
2023-11-01T22:52:16.059Z,96661.00
2023-11-01T22:54:46.217Z,96658.00
2023-11-01T22:57:14.068Z,96644.00
2023-11-01T22:59:42.111Z,96647.00
2023-11-01T23:02:10.960Z,96636.00
2023-11-01T23:04:40.777Z,96626.00
2023-11-01T23:07:10.712Z,96625.00
2023-11-01T23:09:38.897Z,96624.00
2023-11-01T23:12:12.249Z,96635.00
2023-11-01T23:14:40.104Z,96618.00
2023-11-01T23:17:08.567Z,96618.00
2023-11-01T23:19:36.471Z,96611.00
2023-11-01T23:22:04.354Z,96595.00
2023-11-01T23:24:32.771Z,96595.00
2023-11-01T23:27:05.919Z,96592.00
2023-11-01T23:29:36.995Z,96592.00
2023-11-01T23:32:12.007Z,96595.00
2023-11-01T23:34:49.410Z,96592.00
2023-11-01T23:37:19.745Z,96589.00
2023-11-01T23:39:48.397Z,96574.00
2023-11-01T23:42:17.752Z,96566.00
2023-11-01T23:44:48.533Z,96565.00
2023-11-01T23:47:25.329Z,96566.00
2023-11-01T23:49:58.298Z,96560.00
2023-11-01T23:52:31.616Z,96549.00
2023-11-01T23:55:00.162Z,96558.00
2023-11-01T23:57:31.025Z,96549.00
